EGQL/ADX METAR and TAF weather

Enter ICAO airport designator
Station Type Date Time Source
EGQL METAR 2020/01/19 02:50 UTC NOAA

EGQL 190250Z AUTO 25011KT 9999 NCD 01/M01 Q1037


Station Type Date Time Source
EGQL Decoded METAR 2020/01/19 02:50 UTC NOAA

Leuchars, United Kingdom (EGQL) 56-23N 002-52W 0M
Jan 18, 2020 - 09:50 PM EST / 2020.01.19 0250 UTC
Wind: from the WSW (250 degrees) at 13 MPH (11 KT):0
Visibility: greater than 7 mile(s):0
Temperature: 33 F (1 C)
Windchill: 23 F (-5 C):1
Dew Point: 30 F (-1 C)
Relative Humidity: 86%
Pressure (altimeter): 30.62 in. Hg (1037 hPa)
ob: EGQL 190250Z AUTO 25011KT 9999 NCD 01/M01 Q1037
cycle: 3

Station Type Date Time Source
EGQL TAF 2011/07/27 06:03 UTC NOAA

TAF TAF
AMD EGQL 270424Z 2706/2724 14005KT 9999 BKN020 PROB30
TEMPO 2706/2708 SCT012
BECMG 2708/2710 SCT025

Example: see airport list